Goodnews Bay, AK

3:14 AM AKST on December 21, 2014 (GMT -0900)
Togiak | Change Station
CLOSE
Current Station
Airport
Location: Togiak,
Elevation: 20 ft
Nearby Weather Stations

Elev 20 ft 59.05 °N, 160.40 °W | Updated 18 minutes ago

Clear
Clear
12 °F
Feels Like 1 °F
N
8
Wind Variable Wind from NNW

Today
High -- | Low -- °F
--% Chance of Precip.
Yesterday
High -- | Low -- °F
Precip. -- in
10:38 AM 4:47 PM
Waning Crescent, 0% visible
Pressure 29.09 in
Visibility 10.0 miles
Clouds Clear
Windchill 1 °F
Dew Point 10 °F
Humidity 92%
Rainfall 0.00 in
Snow Depth Not available.
UV 0 out of 12
Pollen Not available.
Air Quality Not available.
Flu Activity Not available.
METAR PATG 211156Z AUTO 34007KT 10SM CLR M11/M12 A2909 RMK AO1 70001 11070 21120 52024

More Conditions Fewer Conditions

Pressure 29.09 in
Visibility 10.0 miles
Clouds Clear
Windchill 1 °F
Dew Point 10 °F
Humidity 92%
Rainfall 0.00 in
Snow Depth Not available.
UV 0 out of 12
Pollen Not available.
Air Quality Not available.
Flu Activity Not available.
METAR PATG 211156Z AUTO 34007KT 10SM CLR M11/M12 A2909 RMK AO1 70001 11070 21120 52024

More Conditions Fewer Conditions

10-Day Weather Forecast

Almanac

Astronomy

Dec. 21, 2014 Rise Set
Actual Time
Civil Twilight
Nautical Twilight
Astronomical Twilight
Moon
Length of Visible Light
Length of Day
Tomorrow will be .
, % of the Moon is Illuminated

Today's Extremes

State Highs State Lows

Community

WunderPhotos

Upload Photos

1,779,371 photos uploaded!

WunderBlogs® & News

Nearby

Air Quality

  Air Quality AQ Index Pollutant
Not available.

Snow Depth

Station Depth Elevation

Earthquake Activity

City Distance Mag. Time & Date
Minimum magnitude displayed is 2.5.

Coastal Water Temperatures

Place Temperature

Nearby Weather Stations